C62

Kendallville Municipal Airport

Kendallville, Indiana, USA
METAR KC62 220335Z AUTO 34007KT 10SM CLR 14/08 A3020 RMK AO2 T01460082
Observed Flight Rules
Sep-22 @ 03:35 UTC (13 minutes ago) Visual Flight Rules
Wind Visibility Clouds
340° at 7 knots 10 miles
Temperatures Readings
Current 15°C / 59°F
Dewpoint 8°C / 46°F
Humidity 63%
Altimeter 30.2" Hg
Pressure 1023 hPa
Elevation 306
METAR KC62 220335Z AUTO 34007KT 10SM CLR 14/08 A3020 RMK AO2 T01460082
Observed Flight Rules
Sep-22 @ 03:35 UTC
(13 minutes ago)
VFR
Wind Visibility
340° at 7 knots 10 miles
Clouds
Temperature Dewpoint
15°C / 59°F 8°C / 46°F
Humidity Altimeter Pressure
63% 30.2" Hg 1023 hPa